createdAt,value
2023-01-19T00:02:02.545Z,9.60
2023-01-19T00:05:04.996Z,10.43
2023-01-19T00:08:14.629Z,10.07
2023-01-19T00:11:19.304Z,9.63
2023-01-19T00:14:20.806Z,10.37
2023-01-19T00:17:22.257Z,10.40
2023-01-19T00:20:23.661Z,9.43
2023-01-19T00:23:25.281Z,9.83
2023-01-19T00:26:26.751Z,9.77
2023-01-19T00:29:30.755Z,9.87
2023-01-19T00:32:32.147Z,10.70
2023-01-19T00:35:34.582Z,10.50
2023-01-19T00:38:35.963Z,10.50
2023-01-19T00:41:56.074Z,11.70
2023-01-19T00:44:57.680Z,10.63
2023-01-19T00:47:59.132Z,11.27
2023-01-19T00:51:00.578Z,10.57
2023-01-19T00:54:04.824Z,10.07
2023-01-19T00:57:06.525Z,10.77
2023-01-19T01:00:11.599Z,10.77
2023-01-19T01:03:13.076Z,10.70
2023-01-19T01:06:14.716Z,10.70
2023-01-19T01:09:16.137Z,11.27
2023-01-19T01:12:17.524Z,10.13
2023-01-19T01:15:19.719Z,11.07
2023-01-19T01:18:22.120Z,10.17
2023-01-19T01:21:23.631Z,10.77
2023-01-19T01:24:25.053Z,10.33
2023-01-19T01:27:26.523Z,10.83
2023-01-19T01:30:27.938Z,10.30
2023-01-19T01:33:40.496Z,10.67
2023-01-19T01:36:43.006Z,10.23
2023-01-19T01:39:44.383Z,10.50
2023-01-19T01:42:46.037Z,10.43
2023-01-19T01:45:47.480Z,10.07
2023-01-19T01:49:15.802Z,10.17
2023-01-19T01:52:17.861Z,10.10
2023-01-19T01:55:22.235Z,10.47
2023-01-19T01:58:23.655Z,10.73
2023-01-19T02:01:43.895Z,10.90
2023-01-19T02:04:58.349Z,10.87
2023-01-19T02:08:44.878Z,9.60
2023-01-19T02:12:05.479Z,10.30
2023-01-19T02:15:15.901Z,10.87
2023-01-19T02:18:17.686Z,9.90
2023-01-19T02:21:36.164Z,9.87
2023-01-19T02:24:37.922Z,10.20
2023-01-19T02:27:39.687Z,9.60
2023-01-19T02:30:41.465Z,10.00
2023-01-19T02:33:43.403Z,9.93
2023-01-19T02:36:50.958Z,10.20
2023-01-19T02:39:55.513Z,9.20
2023-01-19T02:43:00.861Z,9.50
2023-01-19T02:46:03.304Z,9.53
2023-01-19T02:49:04.875Z,9.10
2023-01-19T02:52:15.427Z,8.80
2023-01-19T02:55:22.893Z,9.43
2023-01-19T02:58:36.417Z,9.10
2023-01-19T03:02:11.857Z,9.60
2023-01-19T03:05:28.564Z,9.07
2023-01-19T03:08:49.411Z,9.20
2023-01-19T03:11:59.979Z,9.07
2023-01-19T03:15:13.289Z,9.07
2023-01-19T03:18:19.955Z,8.70
2023-01-19T03:21:26.181Z,9.30
2023-01-19T03:24:31.472Z,9.40
2023-01-19T03:27:41.177Z,9.70
2023-01-19T03:30:46.607Z,8.80
2023-01-19T03:33:53.281Z,9.10
2023-01-19T03:37:02.397Z,8.83
2023-01-19T03:40:04.124Z,9.50
2023-01-19T03:43:06.305Z,9.07
2023-01-19T03:46:10.914Z,9.33
2023-01-19T03:49:12.546Z,8.53
2023-01-19T03:52:14.056Z,10.07
2023-01-19T03:55:15.425Z,9.03
2023-01-19T03:58:17.264Z,9.53
2023-01-19T04:01:22.707Z,9.63
2023-01-19T04:04:25.463Z,9.43
2023-01-19T04:07:27.007Z,9.87
2023-01-19T04:10:28.411Z,10.23
2023-01-19T04:13:30.379Z,10.03
2023-01-19T04:16:31.895Z,10.30
2023-01-19T04:19:33.364Z,9.77
2023-01-19T04:22:35.335Z,10.43
2023-01-19T04:25:38.131Z,9.40
2023-01-19T04:28:40.995Z,10.03
2023-01-19T04:31:43.024Z,10.37
2023-01-19T04:34:44.582Z,10.13
2023-01-19T04:37:46.036Z,10.00
2023-01-19T04:40:48.746Z,9.60
2023-01-19T04:43:50.192Z,9.43
2023-01-19T04:46:52.096Z,9.93
2023-01-19T04:49:53.499Z,10.17
2023-01-19T04:52:54.921Z,9.80
2023-01-19T04:55:56.446Z,10.20
2023-01-19T04:58:57.820Z,9.70
2023-01-19T05:01:59.243Z,9.00
2023-01-19T05:05:01.608Z,9.00
2023-01-19T05:08:03.537Z,8.63
2023-01-19T05:11:05.213Z,9.40
2023-01-19T05:14:06.926Z,9.63
2023-01-19T05:17:08.306Z,9.47
2023-01-19T05:20:12.916Z,9.97
2023-01-19T05:23:15.747Z,10.20
2023-01-19T05:26:17.283Z,9.93
2023-01-19T05:29:18.660Z,9.83
2023-01-19T05:32:20.046Z,10.00
2023-01-19T05:35:31.308Z,9.73
2023-01-19T05:38:36.829Z,10.50
2023-01-19T05:41:38.283Z,10.80
2023-01-19T05:44:39.716Z,10.77
2023-01-19T05:47:41.090Z,10.63
2023-01-19T05:50:42.715Z,10.97
2023-01-19T05:53:44.180Z,9.50
2023-01-19T05:56:45.703Z,10.33
2023-01-19T05:59:47.120Z,10.20
2023-01-19T06:02:49.219Z,9.73
2023-01-19T06:05:50.711Z,9.27
2023-01-19T06:08:52.107Z,9.73
2023-01-19T06:11:55.611Z,9.13
2023-01-19T06:14:57.036Z,9.47
2023-01-19T06:17:58.499Z,9.83
2023-01-19T06:21:04.063Z,9.30
2023-01-19T06:24:05.878Z,9.60
2023-01-19T06:27:07.279Z,11.23
2023-01-19T06:30:09.374Z,10.53
2023-01-19T06:33:10.814Z,9.77
2023-01-19T06:36:12.242Z,9.67
2023-01-19T06:39:13.853Z,9.30
2023-01-19T06:42:15.394Z,9.83
2023-01-19T06:45:16.974Z,8.77
2023-01-19T06:48:19.010Z,10.10
2023-01-19T06:51:21.222Z,10.83
2023-01-19T06:54:22.693Z,9.70
2023-01-19T06:57:25.758Z,9.67
2023-01-19T07:00:27.207Z,9.07
2023-01-19T07:03:28.878Z,9.53
2023-01-19T07:06:30.341Z,9.30
2023-01-19T07:09:31.815Z,8.70
2023-01-19T07:12:33.921Z,9.07
2023-01-19T07:15:35.460Z,10.20
2023-01-19T07:18:38.052Z,10.03
2023-01-19T07:21:39.826Z,10.13
2023-01-19T07:24:41.326Z,9.67
2023-01-19T07:27:42.778Z,9.33
2023-01-19T07:30:46.037Z,9.60
2023-01-19T07:33:47.892Z,9.60
2023-01-19T07:36:49.426Z,9.27
2023-01-19T07:39:50.792Z,8.77
2023-01-19T07:42:52.873Z,9.20
2023-01-19T07:45:58.897Z,8.87
2023-01-19T07:49:00.411Z,9.03
2023-01-19T07:52:01.873Z,9.33
2023-01-19T07:55:03.631Z,8.23
2023-01-19T07:58:07.180Z,9.07
2023-01-19T08:01:11.143Z,9.67
2023-01-19T08:04:12.816Z,8.83
2023-01-19T08:07:14.358Z,8.80
2023-01-19T08:10:18.574Z,8.80
2023-01-19T08:13:20.130Z,8.30
2023-01-19T08:16:21.524Z,8.77
2023-01-19T08:19:22.980Z,8.23
2023-01-19T08:22:24.450Z,9.03
2023-01-19T08:25:37.219Z,8.27
2023-01-19T08:28:38.617Z,8.43
2023-01-19T08:31:40.208Z,8.87
2023-01-19T08:34:41.629Z,8.50
2023-01-19T08:37:43.056Z,8.27
2023-01-19T08:40:44.482Z,8.70
2023-01-19T08:43:45.899Z,8.20
2023-01-19T08:46:47.516Z,8.60
2023-01-19T08:49:48.945Z,9.13
2023-01-19T08:52:50.391Z,8.73
2023-01-19T08:56:02.517Z,8.90
2023-01-19T08:59:09.868Z,9.53
2023-01-19T09:02:12.333Z,9.47
2023-01-19T09:05:13.756Z,10.03
2023-01-19T09:08:16.942Z,9.70
2023-01-19T09:11:18.651Z,9.53
2023-01-19T09:14:20.093Z,10.17
2023-01-19T09:17:21.621Z,8.93
2023-01-19T09:20:23.448Z,9.50
2023-01-19T09:23:25.341Z,9.50
2023-01-19T09:26:27.023Z,9.40
2023-01-19T09:29:28.422Z,9.93
2023-01-19T09:32:29.846Z,9.13
2023-01-19T09:35:31.490Z,9.37
2023-01-19T09:38:35.554Z,10.00
2023-01-19T09:41:38.818Z,8.80
2023-01-19T09:44:42.256Z,9.50
2023-01-19T09:47:45.499Z,9.47
2023-01-19T09:50:48.347Z,9.17
2023-01-19T09:53:52.117Z,8.83
2023-01-19T09:56:54.094Z,8.93
2023-01-19T09:59:59.416Z,8.80
2023-01-19T10:03:16.277Z,9.80
2023-01-19T10:06:18.045Z,8.73
2023-01-19T10:09:51.957Z,9.00
2023-01-19T10:13:24.423Z,8.60
2023-01-19T10:16:40.789Z,9.30
2023-01-19T10:19:47.490Z,9.10
2023-01-19T10:22:50.403Z,8.60
2023-01-19T10:25:52.165Z,9.00
2023-01-19T10:28:58.507Z,9.00
2023-01-19T10:32:23.434Z,9.70
2023-01-19T10:35:25.009Z,8.37
2023-01-19T10:38:28.905Z,8.93
2023-01-19T10:41:42.294Z,8.37
2023-01-19T10:44:45.650Z,8.43
2023-01-19T10:47:48.660Z,8.40
2023-01-19T10:51:02.149Z,8.83
2023-01-19T10:54:04.430Z,9.13
2023-01-19T10:57:09.933Z,8.07
2023-01-19T11:00:37.643Z,8.33
2023-01-19T11:03:39.444Z,9.03
2023-01-19T11:06:40.849Z,8.40
2023-01-19T11:09:42.465Z,9.07
2023-01-19T11:12:56.222Z,7.97
2023-01-19T11:16:04.113Z,8.20
2023-01-19T11:19:07.499Z,8.23
2023-01-19T11:22:21.594Z,7.93
2023-01-19T11:25:29.307Z,8.17
2023-01-19T11:28:35.017Z,8.20
2023-01-19T11:31:36.588Z,8.30
2023-01-19T11:34:41.386Z,8.07
2023-01-19T11:37:43.156Z,8.17
2023-01-19T11:40:54.181Z,8.60
2023-01-19T11:44:02.801Z,8.30
2023-01-19T11:47:23.203Z,8.20
2023-01-19T11:50:31.755Z,7.93
2023-01-19T11:53:34.657Z,7.57
2023-01-19T11:56:36.252Z,8.00
2023-01-19T11:59:37.679Z,7.40
2023-01-19T12:02:45.619Z,7.47
2023-01-19T12:05:51.043Z,8.03
2023-01-19T12:08:59.125Z,8.13
2023-01-19T12:12:06.129Z,7.53
2023-01-19T12:15:35.355Z,7.70
2023-01-19T12:18:45.947Z,8.10
2023-01-19T12:21:48.382Z,7.40
2023-01-19T12:25:05.074Z,7.90
2023-01-19T12:28:12.476Z,8.37
2023-01-19T12:31:19.767Z,7.43
2023-01-19T12:34:39.463Z,7.83
2023-01-19T12:37:42.564Z,7.73
2023-01-19T12:40:43.999Z,8.37
2023-01-19T12:43:46.397Z,7.90
2023-01-19T12:46:54.391Z,8.23
2023-01-19T12:50:05.722Z,7.80
2023-01-19T12:53:19.185Z,7.63
2023-01-19T12:56:31.313Z,8.00
2023-01-19T12:59:36.284Z,7.40
2023-01-19T13:02:43.413Z,7.80
2023-01-19T13:05:44.866Z,7.77
2023-01-19T13:08:52.435Z,6.70
2023-01-19T13:12:25.670Z,6.90
2023-01-19T13:15:34.336Z,6.53
2023-01-19T13:18:41.381Z,6.67
2023-01-19T13:21:45.868Z,6.00
2023-01-19T13:25:10.280Z,6.50
2023-01-19T13:28:15.927Z,6.07
2023-01-19T13:31:18.223Z,6.20
2023-01-19T13:34:25.831Z,5.93
2023-01-19T13:37:35.836Z,6.50
2023-01-19T13:40:41.562Z,6.47
2023-01-19T13:43:43.570Z,5.73
2023-01-19T13:46:46.660Z,5.70
2023-01-19T13:49:52.969Z,5.80
2023-01-19T13:52:56.534Z,6.07
2023-01-19T13:56:20.576Z,5.87
2023-01-19T13:59:22.223Z,5.83
2023-01-19T14:02:23.767Z,5.53
2023-01-19T14:05:45.578Z,4.93
2023-01-19T14:08:46.975Z,5.97
2023-01-19T14:12:07.798Z,5.27
2023-01-19T14:15:14.137Z,5.00
2023-01-19T14:18:18.728Z,4.80
2023-01-19T14:21:20.289Z,4.40
2023-01-19T14:24:23.829Z,4.80
2023-01-19T14:27:25.263Z,4.67
2023-01-19T14:30:27.744Z,4.80
2023-01-19T14:33:46.047Z,4.93
2023-01-19T14:36:51.436Z,4.53
2023-01-19T14:40:08.014Z,5.23
2023-01-19T14:43:13.039Z,4.63
2023-01-19T14:46:19.700Z,5.93
2023-01-19T14:49:34.980Z,4.40
2023-01-19T14:52:42.111Z,4.30
2023-01-19T14:55:52.552Z,4.40
2023-01-19T14:58:56.221Z,4.57
2023-01-19T15:01:59.548Z,4.70
2023-01-19T15:05:01.292Z,4.70
2023-01-19T15:08:04.231Z,4.70
2023-01-19T15:11:21.058Z,4.57
2023-01-19T15:14:22.722Z,4.17
2023-01-19T15:17:27.026Z,3.93
2023-01-19T15:20:28.967Z,3.97
2023-01-19T15:23:31.297Z,4.20
2023-01-19T15:26:32.891Z,4.00
2023-01-19T15:29:34.514Z,4.50
2023-01-19T15:32:35.907Z,4.10
2023-01-19T15:35:37.305Z,4.07
2023-01-19T15:38:38.695Z,4.10
2023-01-19T15:41:40.403Z,3.90
2023-01-19T15:44:41.780Z,4.43
2023-01-19T15:47:43.153Z,4.77
2023-01-19T15:50:45.169Z,4.20
2023-01-19T15:53:47.027Z,4.10
2023-01-19T15:56:48.526Z,4.73
2023-01-19T15:59:51.314Z,4.30
2023-01-19T16:02:52.927Z,4.10
2023-01-19T16:05:54.354Z,4.67
2023-01-19T16:08:59.671Z,3.80
2023-01-19T16:12:01.178Z,4.27
2023-01-19T16:15:02.904Z,4.57
2023-01-19T16:18:05.396Z,4.53
2023-01-19T16:21:06.855Z,4.83
2023-01-19T16:24:08.264Z,4.30
2023-01-19T16:27:09.664Z,4.37
2023-01-19T16:30:12.377Z,4.27
2023-01-19T16:33:13.954Z,4.33
2023-01-19T16:36:20.945Z,3.60
2023-01-19T16:39:22.459Z,3.70
2023-01-19T16:42:24.039Z,3.30
2023-01-19T16:45:26.013Z,3.00
2023-01-19T16:48:28.090Z,3.63
2023-01-19T16:51:29.639Z,3.50
2023-01-19T16:54:32.057Z,3.70
2023-01-19T16:57:33.590Z,3.37
2023-01-19T17:00:35.354Z,3.73
2023-01-19T17:03:38.421Z,6.07
2023-01-19T17:06:40.004Z,4.93
2023-01-19T17:09:41.459Z,4.33
2023-01-19T17:12:42.944Z,3.80
2023-01-19T17:15:44.581Z,4.07
2023-01-19T17:18:46.811Z,5.00
2023-01-19T17:21:49.228Z,4.03
2023-01-19T17:24:50.623Z,4.53
2023-01-19T17:27:52.091Z,4.53
2023-01-19T17:30:54.032Z,4.73
2023-01-19T17:33:55.688Z,4.10
2023-01-19T17:37:02.716Z,4.20
2023-01-19T17:40:04.519Z,4.83
2023-01-19T17:43:06.930Z,4.43
2023-01-19T17:46:09.035Z,4.40
2023-01-19T17:49:11.029Z,5.67
2023-01-19T17:52:12.427Z,6.30
2023-01-19T17:55:13.880Z,6.80
2023-01-19T17:58:15.250Z,6.90
2023-01-19T18:01:26.046Z,7.90
2023-01-19T18:04:27.510Z,7.30
2023-01-19T18:07:30.079Z,8.20
2023-01-19T18:10:31.605Z,7.07
2023-01-19T18:13:33.347Z,7.83
2023-01-19T18:16:35.774Z,8.07
2023-01-19T18:19:37.156Z,7.90
2023-01-19T18:22:38.547Z,7.93
2023-01-19T18:25:40.331Z,8.27
2023-01-19T18:28:41.802Z,7.70
2023-01-19T18:31:43.193Z,7.40
2023-01-19T18:34:44.600Z,7.40
2023-01-19T18:37:45.996Z,7.00
2023-01-19T18:40:47.374Z,7.37
2023-01-19T18:43:49.492Z,6.83
2023-01-19T18:46:50.951Z,7.10
2023-01-19T18:49:52.338Z,6.93
2023-01-19T18:52:53.786Z,6.80
2023-01-19T18:55:57.986Z,6.43
2023-01-19T18:59:00.901Z,6.30
2023-01-19T19:02:05.073Z,6.70
2023-01-19T19:05:07.127Z,6.70
2023-01-19T19:08:08.997Z,6.33
2023-01-19T19:11:12.651Z,7.40
2023-01-19T19:14:15.355Z,6.83
2023-01-19T19:17:16.778Z,6.87
2023-01-19T19:20:19.393Z,7.57
2023-01-19T19:23:20.829Z,7.27
2023-01-19T19:26:23.972Z,7.87
2023-01-19T19:29:25.366Z,8.23
2023-01-19T19:32:26.797Z,7.57
2023-01-19T19:35:28.699Z,7.80
2023-01-19T19:38:30.470Z,7.83
2023-01-19T19:41:32.496Z,8.27
2023-01-19T19:44:33.939Z,7.47
2023-01-19T19:47:35.448Z,8.43
2023-01-19T19:50:37.392Z,8.77
2023-01-19T19:53:40.159Z,8.80
2023-01-19T19:56:41.580Z,8.57
2023-01-19T19:59:42.976Z,7.97
2023-01-19T20:02:45.527Z,7.93
2023-01-19T20:05:47.307Z,7.67
2023-01-19T20:08:50.580Z,7.93
2023-01-19T20:11:52.792Z,7.93
2023-01-19T20:14:54.297Z,7.40
2023-01-19T20:17:56.099Z,8.43
2023-01-19T20:20:59.217Z,11.00
2023-01-19T20:24:02.724Z,9.40
2023-01-19T20:27:04.114Z,8.67
2023-01-19T20:30:07.240Z,8.43
2023-01-19T20:33:08.646Z,9.33
2023-01-19T20:36:11.115Z,8.30
2023-01-19T20:39:12.659Z,8.53
2023-01-19T20:42:16.333Z,7.97
2023-01-19T20:45:18.637Z,8.07
2023-01-19T20:48:20.064Z,8.33
2023-01-19T20:51:22.270Z,8.50
2023-01-19T20:54:27.255Z,7.90
2023-01-19T20:57:28.823Z,8.60
2023-01-19T21:00:30.502Z,8.23
2023-01-19T21:03:32.053Z,8.60
2023-01-19T21:06:33.961Z,8.57
2023-01-19T21:09:37.273Z,8.67
2023-01-19T21:12:38.680Z,8.23
2023-01-19T21:15:40.044Z,8.20
2023-01-19T21:18:41.605Z,8.77
2023-01-19T21:21:43.217Z,9.80
2023-01-19T21:24:44.746Z,9.63
2023-01-19T21:27:46.187Z,9.37
2023-01-19T21:30:47.674Z,9.60
2023-01-19T21:33:53.354Z,9.57
2023-01-19T21:36:54.795Z,9.07
2023-01-19T21:39:56.503Z,9.20
2023-01-19T21:42:57.884Z,9.60
2023-01-19T21:46:12.747Z,9.83
2023-01-19T21:49:18.807Z,9.30
2023-01-19T21:52:20.275Z,10.23
2023-01-19T21:55:21.672Z,9.03
2023-01-19T21:58:23.720Z,10.00
2023-01-19T22:01:25.531Z,10.40
2023-01-19T22:04:26.950Z,10.47
2023-01-19T22:07:28.370Z,9.63
2023-01-19T22:10:29.767Z,9.37
2023-01-19T22:13:31.710Z,10.23
2023-01-19T22:16:33.149Z,9.97
2023-01-19T22:19:34.549Z,9.70
2023-01-19T22:22:35.921Z,9.83
2023-01-19T22:25:37.334Z,9.80
2023-01-19T22:28:38.859Z,9.80
2023-01-19T22:31:40.827Z,10.00
2023-01-19T22:34:42.298Z,9.00
2023-01-19T22:37:43.669Z,9.40
2023-01-19T22:40:45.042Z,10.07
2023-01-19T22:43:47.561Z,10.03
2023-01-19T22:46:55.507Z,9.87
2023-01-19T22:49:56.883Z,10.03
2023-01-19T22:52:58.532Z,10.07
2023-01-19T22:56:00.091Z,9.63
2023-01-19T22:59:02.280Z,9.50
2023-01-19T23:02:03.868Z,10.03
2023-01-19T23:05:05.979Z,9.83
2023-01-19T23:08:07.363Z,10.07
2023-01-19T23:11:15.765Z,10.73
2023-01-19T23:14:20.171Z,10.73
2023-01-19T23:17:21.571Z,10.50
2023-01-19T23:20:23.039Z,10.30
2023-01-19T23:23:24.425Z,10.30
2023-01-19T23:26:26.731Z,9.73
2023-01-19T23:29:28.226Z,10.43
2023-01-19T23:32:29.638Z,10.47
2023-01-19T23:35:31.031Z,9.97
2023-01-19T23:38:32.404Z,9.87
2023-01-19T23:41:34.558Z,9.73
2023-01-19T23:44:36.016Z,10.50
2023-01-19T23:47:37.495Z,10.00
2023-01-19T23:50:40.692Z,9.93
2023-01-19T23:53:42.524Z,10.33
2023-01-19T23:56:44.065Z,10.57
2023-01-19T23:59:45.480Z,9.97
